Time;durP1;ratioP1;P1;durP2;ratioP2;P2;SDS_P1;SDS_P2;PMS_P1;PMS_P2;Temp;Humidity;BMP_temperature;BMP_pressure;BME280_temperature;BME280_humidity;BME280_pressure;Samples;Min_cycle;Max_cycle;Signal;HPM_P1;HPM_P2
2024/02/05 00:00:10;;;;;;;;;;;;;;;;;;345041;28;1403;-79
2024/02/05 00:00:20;;;;;;;;;;;;;;;;;;343154;28;1623;-79
2024/02/05 00:00:30;;;;;;;;;;;;;;;;;;344133;28;1470;-79
2024/02/05 00:00:41;;;;;;;;;;;;;;;;;;344075;28;1033;-79
2024/02/05 00:00:51;;;;;;;;;;;;;;;;;;344150;28;1478;-79
2024/02/05 00:01:01;;;;;;;;;;;;;;;;;;344017;28;852;-79
2024/02/05 00:01:12;;;;;;;;;;;;;;;;;;345503;28;1331;-79
2024/02/05 00:01:22;;;;;;;;;;;;;;;;;;342686;28;955;-79
2024/02/05 00:01:33;;;;;;;;;;;;;;;;;;342789;28;1312;-79
2024/02/05 00:01:47;;;;;;;;;;;;;;;;;;342785;28;903;-79
2024/02/05 00:01:57;;;;;;;;;;;;;;;;;;345066;28;1300;-80
2024/02/05 00:02:07;;;;;;;;;;;;;;;;;;346454;28;1402;-79
2024/02/05 00:02:17;;;;;;;;;;;;;;;;;;346702;28;1402;-79
2024/02/05 00:02:28;;;;;;;;;;;;;;;;;;345414;28;1504;-79
2024/02/05 00:02:39;;;;;;;;;;;;;;;;;;345664;28;1049;-79
2024/02/05 00:02:49;;;;;;;;;;;;;;;;;;344198;28;1522;-79
2024/02/05 00:02:59;;;;;;;;;;;;;;;;;;345464;28;1394;-79
2024/02/05 00:03:10;;;;;;;;;;;;;;;;;;345099;28;1297;-79
2024/02/05 00:03:20;;;;;;;;;;;;;;;;;;344212;28;1656;-80
2024/02/05 00:03:30;;;;;;;;;;;;;;;;;;343859;28;1343;-79
2024/02/05 00:03:40;;;;;;;;;;;;;;;;;;346848;28;1021;-79
2024/02/05 00:03:50;;;;;;;;;;;;;;;;;;345083;28;1327;-79
2024/02/05 00:04:01;;;;;;;;;;;;;;;;;;345651;28;840;-79
2024/02/05 00:04:11;;;;;;;;;;;;;;;;;;346118;28;1334;-79
2024/02/05 00:04:21;;;;;;;;;;;;;;;;;;345654;28;883;-79
2024/02/05 00:04:31;;;;;;;;;;;;;;;;;;345351;28;1021;-79
2024/02/05 00:04:43;;;;;;;;;;;;;;;;;;345068;28;993;-79
2024/02/05 00:04:53;;;;;;;;;;;;;;;;;;346104;28;1344;-79
2024/02/05 00:05:03;;;;;;;;;;;;;;;;;;346976;28;1028;-79
2024/02/05 00:05:14;;;;;;;;;;;;;;;;;;346063;28;1362;-79
2024/02/05 00:05:24;;;;;;;;;;;;;;;;;;341571;29;1169;-80
2024/02/05 00:05:34;;;;;;;;;;;;;;;;;;345115;28;1452;-79
2024/02/05 00:05:44;;;;;;;;;;;;;;;;;;343317;28;1386;-79
2024/02/05 00:05:54;;;;;;;;;;;;;;;;;;343731;28;1335;-80
2024/02/05 00:06:05;;;;;;;;;;;;;;;;;;345557;28;1173;-79
2024/02/05 00:06:15;;;;;;;;;;;;;;;;;;345275;28;1886;-80
2024/02/05 00:06:25;;;;;;;;;;;;;;;;;;344347;28;943;-80
2024/02/05 00:06:36;;;;;;;;;;;;;;;;;;343999;28;1557;-80
2024/02/05 00:06:46;;;;;;;;;;;;;;;;;;344270;28;792;-79
2024/02/05 00:06:56;;;;;;;;;;;;;;;;;;343921;28;1331;-79
2024/02/05 00:07:06;;;;;;;;;;;;;;;;;;342779;28;1233;-79
2024/02/05 00:07:18;;;;;;;;;;;;;;;;;;342740;28;1538;-80
2024/02/05 00:07:28;;;;;;;;;;;;;;;;;;342929;28;959;-79
2024/02/05 00:07:38;;;;;;;;;;;;;;;;;;344052;28;1593;-79
2024/02/05 00:07:48;;;;;;;;;;;;;;;;;;344058;28;1316;-80
2024/02/05 00:07:59;;;;;;;;;;;;;;;;;;340144;29;1515;-80
2024/02/05 00:08:09;;;;;;;;;;;;;;;;;;340007;29;1333;-79
2024/02/05 00:08:19;;;;;;;;;;;;;;;;;;340264;29;1609;-79
2024/02/05 00:08:29;;;;;;;;;;;;;;;;;;339636;29;1232;-79
2024/02/05 00:08:40;;;;;;;;;;;;;;;;;;342835;28;1285;-79
2024/02/05 00:08:51;;;;;;;;;;;;;;;;;;342792;28;1329;-79
2024/02/05 00:09:05;;;;;;;;;;;;;;;;;;342809;28;987;-79
2024/02/05 00:09:15;;;;;;;;;;;;;;;;;;346212;28;1339;-79
2024/02/05 00:09:25;;;;;;;;;;;;;;;;;;345560;28;1468;-79
2024/02/05 00:09:35;;;;;;;;;;;;;;;;;;342216;28;1344;-80
2024/02/05 00:09:47;;;;;;;;;;;;;;;;;;344003;28;1231;-79
2024/02/05 00:09:57;;;;;;;;;;;;;;;;;;343105;28;1429;-80
2024/02/05 00:10:08;;;;;;;;;;;;;;;;;;343749;28;1105;-79
2024/02/05 00:10:18;;;;;;;;;;;;;;;;;;343121;28;1521;-80
2024/02/05 00:10:29;;;;;;;;;;;;;;;;;;342662;28;1361;-79
2024/02/05 00:10:40;;;;;;;;;;;;;;;;;;342728;28;1451;-79
2024/02/05 00:10:50;;;;;;;;;;;;;;;;;;339943;29;1344;-79
2024/02/05 00:11:00;;;;;;;;;;;;;;;;;;340125;29;1531;-80
2024/02/05 00:11:10;;;;;;;;;;;;;;;;;;339929;29;1332;-79
2024/02/05 00:11:22;;;;;;;;;;;;;;;;;;341414;29;1438;-80
2024/02/05 00:11:33;;;;;;;;;;;;;;;;;;341288;29;1262;-79
2024/02/05 00:11:44;;;;;;;;;;;;;;;;;;340301;29;964;-79
2024/02/05 00:11:54;;;;;;;;;;;;;;;;;;339886;29;1356;-80
2024/02/05 00:12:04;;;;;;;;;;;;;;;;;;340320;29;994;-79
2024/02/05 00:12:16;;;;;;;;;;;;;;;;;;341715;28;1394;-80
2024/02/05 00:12:26;;;;;;;;;;;;;;;;;;344325;28;1061;-79
2024/02/05 00:12:36;;;;;;;;;;;;;;;;;;343732;28;1327;-79
2024/02/05 00:12:48;;;;;;;;;;;;;;;;;;344204;28;867;-79
2024/02/05 00:12:58;;;;;;;;;;;;;;;;;;342534;28;1529;-79
2024/02/05 00:13:08;;;;;;;;;;;;;;;;;;342925;28;971;-79
2024/02/05 00:13:19;;;;;;;;;;;;;;;;;;341459;28;1367;-79
2024/02/05 00:13:30;;;;;;;;;;;;;;;;;;341498;29;1218;-79
2024/02/05 00:13:41;;;;;;;;;;;;;;;;;;342565;28;1501;-79
2024/02/05 00:13:51;;;;;;;;;;;;;;;;;;342976;28;987;-80
2024/02/05 00:14:02;;;;;;;;;;;;;;;;;;343732;28;1426;-79
2024/02/05 00:14:12;;;;;;;;;;;;;;;;;;345441;28;1406;-79
2024/02/05 00:14:23;;;;;;;;;;;;;;;;;;345438;28;880;-80
2024/02/05 00:14:33;;;;;;;;;;;;;;;;;;343098;28;1474;-79
2024/02/05 00:14:43;;;;;;;;;;;;;;;;;;342711;28;963;-79
2024/02/05 00:14:53;;;;;;;;;;;;;;;;;;344160;28;1319;-80
2024/02/05 00:15:05;;;;;;;;;;;;;;;;;;342182;28;1488;-79
2024/02/05 00:15:15;;;;;;;;;;;;;;;;;;343721;28;1680;-79
2024/02/05 00:15:25;;;;;;;;;;;;;;;;;;342632;28;967;-79
2024/02/05 00:15:36;;;;;;;;;;;;;;;;;;343272;28;1542;-79
2024/02/05 00:15:46;;;;;;;;;;;;;;;;;;342639;28;1070;-80
2024/02/05 00:15:56;;;;;;;;;;;;;;;;;;341919;28;1305;-79
2024/02/05 00:16:07;;;;;;;;;;;;;;;;;;342572;28;1522;-79
2024/02/05 00:16:18;;;;;;;;;;;;;;;;;;342910;28;1011;-79
2024/02/05 00:16:28;;;;;;;;;;;;;;;;;;341267;29;1182;-79
2024/02/05 00:16:38;;;;;;;;;;;;;;;;;;343967;28;1238;-79
2024/02/05 00:16:48;;;;;;;;;;;;;;;;;;344014;28;975;-79
2024/02/05 00:16:58;;;;;;;;;;;;;;;;;;343987;28;1367;-79
2024/02/05 00:17:09;;;;;;;;;;;;;;;;;;342672;28;1232;-79
2024/02/05 00:17:20;;;;;;;;;;;;;;;;;;342800;28;1538;-79
2024/02/05 00:17:30;;;;;;;;;;;;;;;;;;343995;28;1029;-79
2024/02/05 00:17:40;;;;;;;;;;;;;;;;;;344027;28;1343;-79
2024/02/05 00:17:50;;;;;;;;;;;;;;;;;;342379;28;1462;-80
2024/02/05 00:18:01;;;;;;;;;;;;;;;;;;343858;28;1428;-79
2024/02/05 00:18:11;;;;;;;;;;;;;;;;;;343966;28;1225;-79
2024/02/05 00:18:21;;;;;;;;;;;;;;;;;;343807;28;1324;-79
2024/02/05 00:18:32;;;;;;;;;;;;;;;;;;344171;28;955;-79
2024/02/05 00:18:42;;;;;;;;;;;;;;;;;;343341;28;1517;-79
2024/02/05 00:18:52;;;;;;;;;;;;;;;;;;345287;28;1204;-79
2024/02/05 00:19:02;;;;;;;;;;;;;;;;;;345348;28;1335;-79
2024/02/05 00:19:12;;;;;;;;;;;;;;;;;;345375;28;935;-79
2024/02/05 00:19:23;;;;;;;;;;;;;;;;;;345416;28;1334;-79
2024/02/05 00:19:33;;;;;;;;;;;;;;;;;;345418;28;966;-79
2024/02/05 00:19:43;;;;;;;;;;;;;;;;;;344044;28;1371;-79
2024/02/05 00:19:53;;;;;;;;;;;;;;;;;;341395;29;1233;-79
2024/02/05 00:20:04;;;;;;;;;;;;;;;;;;344313;28;1189;-79
2024/02/05 00:20:14;;;;;;;;;;;;;;;;;;344184;28;1368;-79
2024/02/05 00:20:24;;;;;;;;;;;;;;;;;;345193;28;1378;-79
2024/02/05 00:20:34;;;;;;;;;;;;;;;;;;342893;28;1209;-79
2024/02/05 00:20:45;;;;;;;;;;;;;;;;;;342709;28;1386;-80
2024/02/05 00:20:55;;;;;;;;;;;;;;;;;;341516;29;1387;-79
2024/02/05 00:21:05;;;;;;;;;;;;;;;;;;342547;28;1539;-80
2024/02/05 00:21:15;;;;;;;;;;;;;;;;;;342964;28;1081;-79
2024/02/05 00:21:26;;;;;;;;;;;;;;;;;;342489;28;1336;-80
2024/02/05 00:21:36;;;;;;;;;;;;;;;;;;342930;28;915;-79
2024/02/05 00:21:46;;;;;;;;;;;;;;;;;;342574;28;1651;-80
2024/02/05 00:21:56;;;;;;;;;;;;;;;;;;342903;28;1185;-80
2024/02/05 00:22:07;;;;;;;;;;;;;;;;;;345287;28;1462;-80
2024/02/05 00:22:18;;;;;;;;;;;;;;;;;;344128;28;1336;-79
2024/02/05 00:22:28;;;;;;;;;;;;;;;;;;342705;28;1300;-79
2024/02/05 00:22:38;;;;;;;;;;;;;;;;;;342846;28;1392;-79
2024/02/05 00:22:48;;;;;;;;;;;;;;;;;;344078;28;970;-80
2024/02/05 00:22:58;;;;;;;;;;;;;;;;;;343760;28;1132;-79
2024/02/05 00:23:09;;;;;;;;;;;;;;;;;;341280;29;1387;-80
2024/02/05 00:23:19;;;;;;;;;;;;;;;;;;342822;28;1439;-79
2024/02/05 00:23:29;;;;;;;;;;;;;;;;;;345435;28;856;-79
2024/02/05 00:23:39;;;;;;;;;;;;;;;;;;345286;28;1353;-79
2024/02/05 00:23:49;;;;;;;;;;;;;;;;;;345356;28;1136;-79
2024/02/05 00:24:00;;;;;;;;;;;;;;;;;;344126;28;1312;-79
2024/02/05 00:24:10;;;;;;;;;;;;;;;;;;344006;28;990;-79
2024/02/05 00:24:20;;;;;;;;;;;;;;;;;;342877;28;1315;-80
2024/02/05 00:24:31;;;;;;;;;;;;;;;;;;342654;28;1412;-79
2024/02/05 00:24:41;;;;;;;;;;;;;;;;;;342647;28;1223;-79
2024/02/05 00:24:51;;;;;;;;;;;;;;;;;;341226;28;1352;-79
2024/02/05 00:25:01;;;;;;;;;;;;;;;;;;341449;29;1348;-79
2024/02/05 00:25:12;;;;;;;;;;;;;;;;;;341320;29;1003;-79
2024/02/05 00:25:23;;;;;;;;;;;;;;;;;;341464;29;1353;-79
2024/02/05 00:25:33;;;;;;;;;;;;;;;;;;343914;28;1181;-79
2024/02/05 00:25:44;;;;;;;;;;;;;;;;;;343376;28;1315;-79
2024/02/05 00:25:54;;;;;;;;;;;;;;;;;;342664;28;1039;-79
2024/02/05 00:26:04;;;;;;;;;;;;;;;;;;341457;29;1352;-79
2024/02/05 00:26:14;;;;;;;;;;;;;;;;;;341010;29;1922;-79
2024/02/05 00:26:24;;;;;;;;;;;;;;;;;;341443;28;1371;-80
2024/02/05 00:26:35;;;;;;;;;;;;;;;;;;341420;29;896;-79
2024/02/05 00:26:45;;;;;;;;;;;;;;;;;;341458;29;1352;-79
2024/02/05 00:26:55;;;;;;;;;;;;;;;;;;341413;29;1452;-79
2024/02/05 00:27:05;;;;;;;;;;;;;;;;;;341763;29;1367;-80
2024/02/05 00:27:16;;;;;;;;;;;;;;;;;;341618;29;1415;-80
2024/02/05 00:27:26;;;;;;;;;;;;;;;;;;343137;28;1210;-79
2024/02/05 00:27:36;;;;;;;;;;;;;;;;;;343030;28;1052;-80
2024/02/05 00:27:47;;;;;;;;;;;;;;;;;;342878;28;1371;-79
2024/02/05 00:27:57;;;;;;;;;;;;;;;;;;345139;28;1055;-79
2024/02/05 00:28:08;;;;;;;;;;;;;;;;;;345740;28;1241;-80
2024/02/05 00:28:18;;;;;;;;;;;;;;;;;;345748;28;1109;-80
2024/02/05 00:28:28;;;;;;;;;;;;;;;;;;343869;28;1387;-79
2024/02/05 00:28:39;;;;;;;;;;;;;;;;;;343085;28;1131;-80
2024/02/05 00:28:49;;;;;;;;;;;;;;;;;;342921;28;1391;-79
2024/02/05 00:28:59;;;;;;;;;;;;;;;;;;342925;28;1383;-80
2024/02/05 00:29:09;;;;;;;;;;;;;;;;;;341576;29;1198;-79
2024/02/05 00:29:20;;;;;;;;;;;;;;;;;;343204;28;1360;-79
2024/02/05 00:29:30;;;;;;;;;;;;;;;;;;342788;28;1328;-79
2024/02/05 00:29:40;;;;;;;;;;;;;;;;;;345910;28;1022;-80
2024/02/05 00:29:50;;;;;;;;;;;;;;;;;;344256;28;1422;-79
2024/02/05 00:30:00;;;;;;;;;;;;;;;;;;344033;28;1213;-79
2024/02/05 00:30:11;;;;;;;;;;;;;;;;;;342911;28;958;-80
2024/02/05 00:30:21;;;;;;;;;;;;;;;;;;343350;28;1610;-79
2024/02/05 00:30:31;;;;;;;;;;;;;;;;;;342774;28;1415;-79
2024/02/05 00:30:42;;;;;;;;;;;;;;;;;;340485;29;1349;-80
2024/02/05 00:30:52;;;;;;;;;;;;;;;;;;339922;29;1527;-79
2024/02/05 00:31:02;;;;;;;;;;;;;;;;;;340538;29;1337;-79
2024/02/05 00:31:12;;;;;;;;;;;;;;;;;;342784;28;1324;-80
2024/02/05 00:31:22;;;;;;;;;;;;;;;;;;343253;28;1375;-79
2024/02/05 00:31:33;;;;;;;;;;;;;;;;;;343040;28;1030;-80
2024/02/05 00:31:44;;;;;;;;;;;;;;;;;;343221;28;1325;-79
2024/02/05 00:31:54;;;;;;;;;;;;;;;;;;342922;28;1197;-80
2024/02/05 00:32:04;;;;;;;;;;;;;;;;;;344335;28;1426;-79
2024/02/05 00:32:15;;;;;;;;;;;;;;;;;;344348;28;1011;-79
2024/02/05 00:32:25;;;;;;;;;;;;;;;;;;342023;28;1357;-79
2024/02/05 00:32:37;;;;;;;;;;;;;;;;;;344315;28;1022;-80
2024/02/05 00:32:47;;;;;;;;;;;;;;;;;;342424;28;1058;-79
2024/02/05 00:32:58;;;;;;;;;;;;;;;;;;342843;28;1579;-79
2024/02/05 00:33:09;;;;;;;;;;;;;;;;;;342988;28;1340;-79
2024/02/05 00:33:19;;;;;;;;;;;;;;;;;;342915;28;991;-79
2024/02/05 00:33:29;;;;;;;;;;;;;;;;;;343030;28;1400;-79
2024/02/05 00:33:39;;;;;;;;;;;;;;;;;;342974;28;809;-79
2024/02/05 00:33:50;;;;;;;;;;;;;;;;;;344428;28;1560;-79
2024/02/05 00:34:00;;;;;;;;;;;;;;;;;;344059;28;979;-79
2024/02/05 00:34:10;;;;;;;;;;;;;;;;;;344356;28;1399;-80
2024/02/05 00:34:20;;;;;;;;;;;;;;;;;;344066;28;1077;-79
2024/02/05 00:34:31;;;;;;;;;;;;;;;;;;345685;28;1547;-79
2024/02/05 00:34:41;;;;;;;;;;;;;;;;;;342808;28;1209;-79
2024/02/05 00:34:51;;;;;;;;;;;;;;;;;;343353;28;1327;-79
2024/02/05 00:35:02;;;;;;;;;;;;;;;;;;341627;29;888;-80
2024/02/05 00:35:12;;;;;;;;;;;;;;;;;;345252;28;1426;-80
2024/02/05 00:35:22;;;;;;;;;;;;;;;;;;345561;28;1520;-79
2024/02/05 00:35:33;;;;;;;;;;;;;;;;;;343035;28;1452;-79
2024/02/05 00:35:43;;;;;;;;;;;;;;;;;;345639;28;1212;-79
2024/02/05 00:35:53;;;;;;;;;;;;;;;;;;345818;28;1766;-79
2024/02/05 00:36:04;;;;;;;;;;;;;;;;;;344138;28;1197;-79
2024/02/05 00:36:15;;;;;;;;;;;;;;;;;;341842;29;1018;-79
2024/02/05 00:36:25;;;;;;;;;;;;;;;;;;342655;28;1353;-80
2024/02/05 00:36:35;;;;;;;;;;;;;;;;;;345507;28;1597;-79
2024/02/05 00:36:45;;;;;;;;;;;;;;;;;;342662;28;1355;-80
2024/02/05 00:36:55;;;;;;;;;;;;;;;;;;344450;28;1197;-79
2024/02/05 00:37:07;;;;;;;;;;;;;;;;;;344446;28;1379;-79
2024/02/05 00:37:18;;;;;;;;;;;;;;;;;;345931;28;986;-79
2024/02/05 00:37:28;;;;;;;;;;;;;;;;;;345544;28;1439;-80
2024/02/05 00:37:38;;;;;;;;;;;;;;;;;;345258;28;1098;-79
2024/02/05 00:37:48;;;;;;;;;;;;;;;;;;344571;28;1374;-80
2024/02/05 00:37:59;;;;;;;;;;;;;;;;;;344446;28;1311;-79
2024/02/05 00:38:09;;;;;;;;;;;;;;;;;;344225;28;1022;-79
2024/02/05 00:38:19;;;;;;;;;;;;;;;;;;344570;28;1002;-79
2024/02/05 00:38:29;;;;;;;;;;;;;;;;;;342851;28;1348;-79
2024/02/05 00:38:40;;;;;;;;;;;;;;;;;;343043;28;1307;-79
2024/02/05 00:38:50;;;;;;;;;;;;;;;;;;344113;28;1375;-79
2024/02/05 00:39:00;;;;;;;;;;;;;;;;;;345869;28;1215;-79
2024/02/05 00:39:10;;;;;;;;;;;;;;;;;;343102;28;1434;-79
2024/02/05 00:39:20;;;;;;;;;;;;;;;;;;343193;28;1057;-79
2024/02/05 00:39:31;;;;;;;;;;;;;;;;;;343478;28;1347;-80
2024/02/05 00:39:41;;;;;;;;;;;;;;;;;;345731;28;1515;-80
2024/02/05 00:39:51;;;;;;;;;;;;;;;;;;344878;28;1205;-79
2024/02/05 00:40:05;;;;;;;;;;;;;;;;;;347152;28;1038;-80
2024/02/05 00:40:16;;;;;;;;;;;;;;;;;;345252;28;1520;-79
2024/02/05 00:40:26;;;;;;;;;;;;;;;;;;344393;28;1537;-79
2024/02/05 00:40:36;;;;;;;;;;;;;;;;;;345541;28;1426;-79
2024/02/05 00:40:48;;;;;;;;;;;;;;;;;;342728;28;1137;-80
2024/02/05 00:40:58;;;;;;;;;;;;;;;;;;342587;28;1386;-79
2024/02/05 00:41:08;;;;;;;;;;;;;;;;;;341960;28;1343;-79
2024/02/05 00:41:18;;;;;;;;;;;;;;;;;;341446;29;1438;-79
2024/02/05 00:41:28;;;;;;;;;;;;;;;;;;343021;28;1387;-79
2024/02/05 00:41:39;;;;;;;;;;;;;;;;;;345575;28;1446;-79
2024/02/05 00:41:49;;;;;;;;;;;;;;;;;;344427;28;1304;-79
2024/02/05 00:41:59;;;;;;;;;;;;;;;;;;342923;28;1209;-79
2024/02/05 00:42:09;;;;;;;;;;;;;;;;;;343154;28;1403;-79
2024/02/05 00:42:19;;;;;;;;;;;;;;;;;;342793;28;1007;-79
2024/02/05 00:42:30;;;;;;;;;;;;;;;;;;342841;28;1247;-79
2024/02/05 00:42:40;;;;;;;;;;;;;;;;;;340344;29;1351;-79
2024/02/05 00:42:50;;;;;;;;;;;;;;;;;;340782;29;1325;-79
2024/02/05 00:43:00;;;;;;;;;;;;;;;;;;341651;29;1079;-79
2024/02/05 00:43:10;;;;;;;;;;;;;;;;;;341711;29;1316;-80
2024/02/05 00:43:21;;;;;;;;;;;;;;;;;;341693;29;1529;-79
2024/02/05 00:43:31;;;;;;;;;;;;;;;;;;341602;29;1565;-80
2024/02/05 00:43:41;;;;;;;;;;;;;;;;;;339826;29;1739;-79
2024/02/05 00:43:51;;;;;;;;;;;;;;;;;;340613;29;1341;-79
2024/02/05 00:44:02;;;;;;;;;;;;;;;;;;341800;29;896;-80
2024/02/05 00:44:12;;;;;;;;;;;;;;;;;;343571;28;1271;-80
2024/02/05 00:44:22;;;;;;;;;;;;;;;;;;346053;28;1022;-79
2024/02/05 00:44:32;;;;;;;;;;;;;;;;;;345384;28;1347;-79
2024/02/05 00:44:42;;;;;;;;;;;;;;;;;;344428;28;1313;-79
2024/02/05 00:44:53;;;;;;;;;;;;;;;;;;344314;28;1378;-79
2024/02/05 00:45:03;;;;;;;;;;;;;;;;;;344566;28;1010;-79
2024/02/05 00:45:14;;;;;;;;;;;;;;;;;;344651;28;1375;-79
2024/02/05 00:45:24;;;;;;;;;;;;;;;;;;344455;28;1270;-79
2024/02/05 00:45:35;;;;;;;;;;;;;;;;;;344132;28;1358;-80
2024/02/05 00:45:45;;;;;;;;;;;;;;;;;;345840;28;1217;-79
2024/02/05 00:45:56;;;;;;;;;;;;;;;;;;345381;28;1352;-80
2024/02/05 00:46:06;;;;;;;;;;;;;;;;;;344567;28;895;-79
2024/02/05 00:46:22;;;;;;;;;;;;;;;;;;344029;28;1958;-79
2024/02/05 00:46:32;;;;;;;;;;;;;;;;;;345370;28;1323;-79
2024/02/05 00:46:43;;;;;;;;;;;;;;;;;;344458;28;1191;-79
2024/02/05 00:46:53;;;;;;;;;;;;;;;;;;343714;28;1351;-80
2024/02/05 00:47:03;;;;;;;;;;;;;;;;;;341812;28;1292;-80
2024/02/05 00:47:13;;;;;;;;;;;;;;;;;;341543;29;1332;-79
2024/02/05 00:47:23;;;;;;;;;;;;;;;;;;344296;28;1185;-79
2024/02/05 00:47:34;;;;;;;;;;;;;;;;;;343742;28;1332;-79
2024/02/05 00:47:44;;;;;;;;;;;;;;;;;;343164;28;1326;-79
2024/02/05 00:47:54;;;;;;;;;;;;;;;;;;342922;28;1312;-80
2024/02/05 00:48:04;;;;;;;;;;;;;;;;;;343310;28;1296;-79
2024/02/05 00:48:15;;;;;;;;;;;;;;;;;;341598;28;1384;-79
2024/02/05 00:48:25;;;;;;;;;;;;;;;;;;341546;29;1341;-79
2024/02/05 00:48:35;;;;;;;;;;;;;;;;;;344308;28;1421;-79
2024/02/05 00:48:45;;;;;;;;;;;;;;;;;;344391;28;971;-79
2024/02/05 00:48:56;;;;;;;;;;;;;;;;;;344259;28;1355;-79
2024/02/05 00:49:06;;;;;;;;;;;;;;;;;;343517;28;1276;-79
2024/02/05 00:49:16;;;;;;;;;;;;;;;;;;344563;28;982;-79
2024/02/05 00:49:26;;;;;;;;;;;;;;;;;;342998;28;1010;-80
2024/02/05 00:49:37;;;;;;;;;;;;;;;;;;344573;28;1406;-80
2024/02/05 00:49:47;;;;;;;;;;;;;;;;;;345725;28;998;-80
2024/02/05 00:49:57;;;;;;;;;;;;;;;;;;344415;28;1185;-79
2024/02/05 00:50:09;;;;;;;;;;;;;;;;;;342970;28;974;-80
2024/02/05 00:50:19;;;;;;;;;;;;;;;;;;341807;29;1265;-79
2024/02/05 00:50:29;;;;;;;;;;;;;;;;;;342961;28;1089;-79
2024/02/05 00:50:41;;;;;;;;;;;;;;;;;;343424;28;983;-79
2024/02/05 00:50:51;;;;;;;;;;;;;;;;;;344337;28;939;-79
2024/02/05 00:51:02;;;;;;;;;;;;;;;;;;344404;28;1407;-79
2024/02/05 00:51:12;;;;;;;;;;;;;;;;;;344311;28;1030;-79
2024/02/05 00:51:22;;;;;;;;;;;;;;;;;;344544;28;994;-79
2024/02/05 00:51:33;;;;;;;;;;;;;;;;;;341507;28;1176;-79
2024/02/05 00:51:43;;;;;;;;;;;;;;;;;;343152;28;978;-79
2024/02/05 00:51:54;;;;;;;;;;;;;;;;;;341459;29;1435;-79
2024/02/05 00:52:04;;;;;;;;;;;;;;;;;;344020;28;1321;-79
2024/02/05 00:52:14;;;;;;;;;;;;;;;;;;344029;28;1209;-79
2024/02/05 00:52:25;;;;;;;;;;;;;;;;;;344471;28;1216;-80
2024/02/05 00:52:35;;;;;;;;;;;;;;;;;;341435;28;1364;-80
2024/02/05 00:52:45;;;;;;;;;;;;;;;;;;343114;28;1312;-80
2024/02/05 00:52:56;;;;;;;;;;;;;;;;;;341495;29;1419;-79
2024/02/05 00:53:06;;;;;;;;;;;;;;;;;;340451;29;1066;-79
2024/02/05 00:53:16;;;;;;;;;;;;;;;;;;342785;28;1360;-79
2024/02/05 00:53:26;;;;;;;;;;;;;;;;;;343176;28;1061;-79
2024/02/05 00:53:36;;;;;;;;;;;;;;;;;;341656;28;1336;-79
2024/02/05 00:53:47;;;;;;;;;;;;;;;;;;341657;29;1053;-79
2024/02/05 00:53:58;;;;;;;;;;;;;;;;;;341291;28;1165;-79
2024/02/05 00:54:09;;;;;;;;;;;;;;;;;;341833;29;987;-79
2024/02/05 00:54:19;;;;;;;;;;;;;;;;;;341670;28;1388;-80
2024/02/05 00:54:29;;;;;;;;;;;;;;;;;;340351;29;1197;-79
2024/02/05 00:54:39;;;;;;;;;;;;;;;;;;341450;29;1324;-79
2024/02/05 00:54:49;;;;;;;;;;;;;;;;;;341792;29;968;-80
2024/02/05 00:55:00;;;;;;;;;;;;;;;;;;342872;28;1360;-80
2024/02/05 00:55:10;;;;;;;;;;;;;;;;;;343138;28;1037;-79
2024/02/05 00:55:21;;;;;;;;;;;;;;;;;;342857;28;1213;-79
2024/02/05 00:55:31;;;;;;;;;;;;;;;;;;343024;28;1028;-79
2024/02/05 00:55:41;;;;;;;;;;;;;;;;;;342835;28;1336;-80
2024/02/05 00:55:51;;;;;;;;;;;;;;;;;;343055;28;1352;-79
2024/02/05 00:56:02;;;;;;;;;;;;;;;;;;344209;28;1323;-80
2024/02/05 00:56:12;;;;;;;;;;;;;;;;;;343101;28;1310;-79
2024/02/05 00:56:22;;;;;;;;;;;;;;;;;;341373;29;1371;-79
2024/02/05 00:56:33;;;;;;;;;;;;;;;;;;341789;29;1309;-79
2024/02/05 00:56:44;;;;;;;;;;;;;;;;;;341579;29;1270;-79
2024/02/05 00:56:55;;;;;;;;;;;;;;;;;;341789;29;1022;-80
2024/02/05 00:57:05;;;;;;;;;;;;;;;;;;341428;29;1531;-80
2024/02/05 00:57:15;;;;;;;;;;;;;;;;;;343623;28;1287;-79
2024/02/05 00:57:26;;;;;;;;;;;;;;;;;;344328;28;804;-79
2024/02/05 00:57:36;;;;;;;;;;;;;;;;;;342726;28;1379;-79
2024/02/05 00:57:47;;;;;;;;;;;;;;;;;;342919;28;1552;-79
2024/02/05 00:57:57;;;;;;;;;;;;;;;;;;341650;29;1430;-80
2024/02/05 00:58:07;;;;;;;;;;;;;;;;;;340849;29;1329;-80
2024/02/05 00:58:17;;;;;;;;;;;;;;;;;;341175;29;1548;-79
2024/02/05 00:58:27;;;;;;;;;;;;;;;;;;341483;29;1247;-79
2024/02/05 00:58:38;;;;;;;;;;;;;;;;;;341752;29;1312;-80
2024/02/05 00:58:49;;;;;;;;;;;;;;;;;;340947;29;971;-80
2024/02/05 00:58:59;;;;;;;;;;;;;;;;;;340693;29;1340;-80
2024/02/05 00:59:09;;;;;;;;;;;;;;;;;;340381;29;1420;-79
2024/02/05 00:59:20;;;;;;;;;;;;;;;;;;341957;28;1403;-80
2024/02/05 00:59:30;;;;;;;;;;;;;;;;;;342946;28;974;-79
2024/02/05 00:59:41;;;;;;;;;;;;;;;;;;342879;28;1411;-79
2024/02/05 00:59:51;;;;;;;;;;;;;;;;;;341590;29;1003;-79
2024/02/05 01:00:01;;;;;;;;;;;;;;;;;;341300;29;1395;-79
2024/02/05 01:00:12;;;;;;;;;;;;;;;;;;340330;29;1070;-79
2024/02/05 01:00:23;;;;;;;;;;;;;;;;;;339272;29;1425;-80
2024/02/05 01:00:33;;;;;;;;;;;;;;;;;;339981;29;1394;-79
2024/02/05 01:00:44;;;;;;;;;;;;;;;;;;341815;28;1332;-80
2024/02/05 01:00:54;;;;;;;;;;;;;;;;;;341004;28;1387;-79
2024/02/05 01:01:04;;;;;;;;;;;;;;;;;;340554;29;1332;-80
2024/02/05 01:01:15;;;;;;;;;;;;;;;;;;341608;29;1022;-80
2024/02/05 01:01:25;;;;;;;;;;;;;;;;;;341619;29;1340;-79
2024/02/05 01:01:35;;;;;;;;;;;;;;;;;;342932;28;879;-79
2024/02/05 01:01:46;;;;;;;;;;;;;;;;;;343111;28;1376;-79
2024/02/05 01:01:56;;;;;;;;;;;;;;;;;;342951;28;982;-79
2024/02/05 01:02:06;;;;;;;;;;;;;;;;;;342905;28;1317;-79
2024/02/05 01:02:18;;;;;;;;;;;;;;;;;;342975;28;998;-79
2024/02/05 01:02:28;;;;;;;;;;;;;;;;;;342936;28;1447;-80
2024/02/05 01:02:39;;;;;;;;;;;;;;;;;;341628;29;974;-80
2024/02/05 01:02:51;;;;;;;;;;;;;;;;;;340352;29;1465;-80
2024/02/05 01:03:02;;;;;;;;;;;;;;;;;;340126;29;1341;-79
2024/02/05 01:03:13;;;;;;;;;;;;;;;;;;340361;29;1515;-79
2024/02/05 01:03:23;;;;;;;;;;;;;;;;;;341403;29;1321;-79
2024/02/05 01:03:34;;;;;;;;;;;;;;;;;;341712;29;1561;-79
2024/02/05 01:03:44;;;;;;;;;;;;;;;;;;341479;29;1189;-79
2024/02/05 01:03:54;;;;;;;;;;;;;;;;;;343206;28;978;-80
2024/02/05 01:04:04;;;;;;;;;;;;;;;;;;341203;29;1407;-79
2024/02/05 01:04:15;;;;;;;;;;;;;;;;;;340685;29;1348;-79
2024/02/05 01:04:25;;;;;;;;;;;;;;;;;;341596;29;943;-79
2024/02/05 01:04:37;;;;;;;;;;;;;;;;;;341844;29;987;-80
2024/02/05 01:04:47;;;;;;;;;;;;;;;;;;342173;28;1428;-79
2024/02/05 01:04:58;;;;;;;;;;;;;;;;;;341707;28;1331;-80
2024/02/05 01:05:08;;;;;;;;;;;;;;;;;;342763;28;1328;-79
2024/02/05 01:05:18;;;;;;;;;;;;;;;;;;343009;28;1043;-79
2024/02/05 01:05:29;;;;;;;;;;;;;;;;;;342723;28;1399;-79
2024/02/05 01:05:39;;;;;;;;;;;;;;;;;;344427;28;1200;-79
2024/02/05 01:05:49;;;;;;;;;;;;;;;;;;342999;28;1402;-79
2024/02/05 01:05:59;;;;;;;;;;;;;;;;;;343201;28;982;-79
2024/02/05 01:06:10;;;;;;;;;;;;;;;;;;342797;28;1513;-80
2024/02/05 01:06:20;;;;;;;;;;;;;;;;;;343064;28;1910;-79
2024/02/05 01:06:30;;;;;;;;;;;;;;;;;;342843;28;1545;-79
2024/02/05 01:06:40;;;;;;;;;;;;;;;;;;341778;29;1232;-79
2024/02/05 01:06:51;;;;;;;;;;;;;;;;;;341372;29;1438;-79
2024/02/05 01:07:01;;;;;;;;;;;;;;;;;;343125;28;1098;-79
2024/02/05 01:07:11;;;;;;;;;;;;;;;;;;342972;28;982;-79
2024/02/05 01:07:21;;;;;;;;;;;;;;;;;;341597;28;1359;-80
2024/02/05 01:07:32;;;;;;;;;;;;;;;;;;341667;28;1600;-79
2024/02/05 01:07:42;;;;;;;;;;;;;;;;;;343061;28;1303;-79
2024/02/05 01:07:52;;;;;;;;;;;;;;;;;;342341;28;1537;-79
2024/02/05 01:08:02;;;;;;;;;;;;;;;;;;341705;29;1659;-79
2024/02/05 01:08:12;;;;;;;;;;;;;;;;;;342764;28;1484;-80
2024/02/05 01:08:23;;;;;;;;;;;;;;;;;;343146;28;1327;-79
2024/02/05 01:08:33;;;;;;;;;;;;;;;;;;339609;29;1093;-80
2024/02/05 01:08:43;;;;;;;;;;;;;;;;;;341681;29;1327;-79
2024/02/05 01:08:53;;;;;;;;;;;;;;;;;;340400;29;991;-79
2024/02/05 01:09:09;;;;;;;;;;;;;;;;;;340393;29;1304;-79
2024/02/05 01:09:21;;;;;;;;;;;;;;;;;;342857;28;1338;-79
2024/02/05 01:09:31;;;;;;;;;;;;;;;;;;342910;28;1556;-80
2024/02/05 01:09:41;;;;;;;;;;;;;;;;;;344208;28;1017;-79
2024/02/05 01:09:52;;;;;;;;;;;;;;;;;;342836;28;1462;-80
2024/02/05 01:10:02;;;;;;;;;;;;;;;;;;342926;28;982;-79
2024/02/05 01:10:12;;;;;;;;;;;;;;;;;;343504;28;1584;-79
2024/02/05 01:10:23;;;;;;;;;;;;;;;;;;342876;28;1186;-80
2024/02/05 01:10:33;;;;;;;;;;;;;;;;;;343197;28;1386;-80
2024/02/05 01:10:43;;;;;;;;;;;;;;;;;;342954;28;939;-79
2024/02/05 01:10:54;;;;;;;;;;;;;;;;;;344381;28;1326;-79
2024/02/05 01:11:06;;;;;;;;;;;;;;;;;;341504;28;1426;-80
2024/02/05 01:11:16;;;;;;;;;;;;;;;;;;341348;29;1382;-80
2024/02/05 01:11:26;;;;;;;;;;;;;;;;;;340318;29;1340;-80
2024/02/05 01:11:36;;;;;;;;;;;;;;;;;;340408;29;1187;-79
2024/02/05 01:11:47;;;;;;;;;;;;;;;;;;339864;29;1123;-79
2024/02/05 01:11:57;;;;;;;;;;;;;;;;;;340427;29;935;-80
2024/02/05 01:12:08;;;;;;;;;;;;;;;;;;340279;29;1321;-79
2024/02/05 01:12:18;;;;;;;;;;;;;;;;;;340546;29;1034;-80
2024/02/05 01:12:28;;;;;;;;;;;;;;;;;;340330;29;1320;-79
2024/02/05 01:12:38;;;;;;;;;;;;;;;;;;340475;29;1035;-79
2024/02/05 01:12:49;;;;;;;;;;;;;;;;;;340341;29;1206;-79
2024/02/05 01:12:59;;;;;;;;;;;;;;;;;;340525;29;971;-79
2024/02/05 01:13:09;;;;;;;;;;;;;;;;;;340323;29;1611;-79
2024/02/05 01:13:19;;;;;;;;;;;;;;;;;;343951;28;1433;-79
2024/02/05 01:13:30;;;;;;;;;;;;;;;;;;342710;28;1184;-79
2024/02/05 01:13:40;;;;;;;;;;;;;;;;;;340521;29;931;-79
2024/02/05 01:13:50;;;;;;;;;;;;;;;;;;343358;28;1430;-79